Time;durP1;ratioP1;P1;durP2;ratioP2;P2;SDS_P1;SDS_P2;PMS_P1;PMS_P2;Temp;Humidity;BMP_temperature;BMP_pressure;BME280_temperature;BME280_humidity;BME280_pressure;Samples;Min_cycle;Max_cycle;Signal;HPM_P1;HPM_P2
2022/01/06 00:00:35;;;;;;;;;68.60;52.80;18.20;99.90;;;;;;5055896;28;9347;-71
2022/01/06 00:03:02;;;;;;;;;67.00;52.40;18.30;99.90;;;;;;5071736;28;8746;-72
2022/01/06 00:05:28;;;;;;;;;68.20;52.60;18.30;99.90;;;;;;5056160;28;8766;-71
2022/01/06 00:07:55;;;;;;;;;61.60;47.80;18.50;99.90;;;;;;5056233;28;8758;-71
2022/01/06 00:10:23;;;;;;;;;71.20;55.20;18.40;99.90;;;;;;5056311;28;8754;-71
2022/01/06 00:13:14;;;;;;;;;74.00;55.00;18.40;99.90;;;;;;5056331;28;8911;-72
2022/01/06 00:15:57;;;;;;;;;72.60;56.00;18.50;99.90;;;;;;5055261;28;8789;-72
2022/01/06 00:18:37;;;;;;;;;73.80;59.60;18.40;99.90;;;;;;5055600;28;8764;-71
2022/01/06 00:23:48;;;;;;;;;75.80;57.80;18.50;99.90;;;;;;5054840;28;8761;-72
2022/01/06 00:26:15;;;;;;;;;74.80;59.40;18.50;99.90;;;;;;5071127;28;8778;-72
2022/01/06 00:28:42;;;;;;;;;76.40;58.20;18.40;99.90;;;;;;5056050;28;8730;-71
2022/01/06 00:31:08;;;;;;;;;73.80;58.60;18.20;99.90;;;;;;5071873;28;8848;-72
2022/01/06 00:33:35;;;;;;;;;71.40;55.40;18.30;99.90;;;;;;5054212;28;8765;-72
2022/01/06 00:36:02;;;;;;;;;75.20;60.40;18.30;99.90;;;;;;5055794;28;8738;-71
2022/01/06 00:38:29;;;;;;;;;75.00;60.80;18.40;99.90;;;;;;5055667;28;8819;-71
2022/01/06 00:40:56;;;;;;;;;79.80;66.80;18.50;99.90;;;;;;5055699;28;8769;-71
2022/01/06 00:43:23;;;;;;;;;84.40;71.00;18.40;99.90;;;;;;5056315;28;8767;-71
2022/01/06 00:45:50;;;;;;;;;75.40;58.60;18.60;99.90;;;;;;5057068;28;8710;-71
2022/01/06 00:48:16;;;;;;;;;64.00;49.25;18.70;99.90;;;;;;5059387;28;8737;-71
2022/01/06 00:50:44;;;;;;;;;58.75;45.75;18.80;99.90;;;;;;5059910;28;8726;-72
2022/01/06 00:53:10;;;;;;;;;51.25;41.00;18.90;99.90;;;;;;5058854;28;8753;-71
2022/01/06 00:55:37;;;;;;;;;55.25;44.75;18.90;99.90;;;;;;5059375;28;8816;-71
2022/01/06 00:58:04;;;;;;;;;57.50;44.75;19.00;99.90;;;;;;5075113;28;8765;-72
2022/01/06 01:00:38;;;;;;;;;58.75;45.00;19.10;99.90;;;;;;5058782;28;9446;-71
2022/01/06 01:03:16;;;;;;;;;60.00;48.60;19.10;99.90;;;;;;5059091;28;8746;-72
2022/01/06 01:05:44;;;;;;;;;65.80;50.80;19.10;99.90;;;;;;5059342;28;8836;-72
2022/01/06 01:08:13;;;;;;;;;52.00;43.00;19.10;99.90;;;;;;5059491;28;8725;-72
2022/01/06 01:10:40;;;;;;;;;52.00;41.75;19.20;99.90;;;;;;5059268;28;8754;-72
2022/01/06 01:13:12;;;;;;;;;51.75;41.25;19.20;99.90;;;;;;5059820;28;8777;-71
2022/01/06 01:15:52;;;;;;;;;52.75;43.00;19.40;99.90;;;;;;5059129;28;8777;-71
2022/01/06 01:18:20;;;;;;;;;61.75;48.00;19.50;99.90;;;;;;5058722;28;8745;-69
2022/01/06 01:20:48;;;;;;;;;64.00;48.25;19.60;99.90;;;;;;5059082;28;8730;-71
2022/01/06 01:23:15;;;;;;;;;66.00;48.75;19.70;99.90;;;;;;5058167;28;8737;-72
2022/01/06 01:25:42;;;;;;;;;66.40;52.20;19.80;99.90;;;;;;5058951;28;8750;-72
2022/01/06 01:28:10;;;;;;;;;64.25;50.50;19.80;99.90;;;;;;5059791;28;8742;-71
2022/01/06 01:30:53;;;;;;;;;63.00;49.25;19.90;99.90;;;;;;5058742;28;8809;-71
2022/01/06 01:33:19;;;;;;;;;60.25;47.00;20.00;99.90;;;;;;5057474;28;8717;-71
2022/01/06 01:35:46;;;;;;;;;54.50;41.50;20.10;99.90;;;;;;5074125;28;8818;-71
2022/01/06 01:38:13;;;;;;;;;57.25;44.75;20.20;99.90;;;;;;5058766;28;8779;-72
2022/01/06 01:40:39;;;;;;;;;47.25;39.00;20.10;99.90;;;;;;5058711;28;8859;-71
2022/01/06 01:43:06;;;;;;;;;46.50;36.00;20.20;99.90;;;;;;5040716;28;8778;-71
2022/01/06 01:45:34;;;;;;;;;43.25;36.25;20.30;99.90;;;;;;5056749;28;8880;-71
2022/01/06 01:48:06;;;;;;;;;46.75;35.50;20.40;99.90;;;;;;5058643;28;8863;-71
2022/01/06 01:50:32;;;;;;;;;41.00;33.75;20.60;99.90;;;;;;5058260;28;10354;-71
2022/01/06 01:52:59;;;;;;;;;49.75;38.00;20.70;99.90;;;;;;5058640;28;8793;-71
2022/01/06 01:55:29;;;;;;;;;44.00;33.25;20.70;99.90;;;;;;5058569;28;8843;-71
2022/01/06 01:57:56;;;;;;;;;47.75;38.50;20.90;99.90;;;;;;5058604;28;8884;-67
2022/01/06 02:00:25;;;;;;;;;49.50;36.00;20.90;99.90;;;;;;5058649;28;8778;-71
2022/01/06 02:02:54;;;;;;;;;52.25;39.25;21.00;99.90;;;;;;5056918;28;8750;-71
2022/01/06 02:05:29;;;;;;;;;54.00;40.00;21.10;99.90;;;;;;5057881;28;8776;-72
2022/01/06 02:07:59;;;;;;;;;52.75;41.75;21.20;99.90;;;;;;5057061;28;8745;-71
2022/01/06 02:10:27;;;;;;;;;50.00;38.75;21.30;99.90;;;;;;5057999;28;8733;-71
2022/01/06 02:12:55;;;;;;;;;48.25;39.00;21.30;99.90;;;;;;5058432;28;8879;-72
2022/01/06 02:15:22;;;;;;;;;49.00;39.25;21.40;99.90;;;;;;5058093;28;8937;-71
2022/01/06 02:17:49;;;;;;;;;51.75;40.00;21.40;99.90;;;;;;5058088;28;8778;-71
2022/01/06 02:20:17;;;;;;;;;52.00;38.75;21.40;99.90;;;;;;5057797;28;9434;-71
2022/01/06 02:22:44;;;;;;;;;50.75;42.25;21.30;99.90;;;;;;5057794;28;8730;-71
2022/01/06 02:25:32;;;;;;;;;55.00;45.50;21.40;99.90;;;;;;5058446;28;8730;-71
2022/01/06 02:28:02;;;;;;;;;56.50;45.00;21.40;99.90;;;;;;5058717;28;8734;-71
2022/01/06 02:30:32;;;;;;;;;59.50;44.75;21.50;99.90;;;;;;5057699;28;8819;-71
2022/01/06 02:33:00;;;;;;;;;55.75;44.25;21.60;99.90;;;;;;5056244;28;9383;-71
2022/01/06 02:35:27;;;;;;;;;59.25;47.25;21.60;99.90;;;;;;5057670;28;8773;-71
2022/01/06 02:37:54;;;;;;;;;66.60;51.00;21.60;99.90;;;;;;5057526;28;8785;-71
2022/01/06 02:40:22;;;;;;;;;65.50;50.75;21.70;99.90;;;;;;5057995;28;8750;-71
2022/01/06 02:42:54;;;;;;;;;68.40;53.40;21.80;99.90;;;;;;5057961;28;10132;-72
2022/01/06 02:45:23;;;;;;;;;65.60;52.00;21.90;99.90;;;;;;5057575;28;9015;-70
2022/01/06 02:47:50;;;;;;;;;67.00;50.60;22.10;99.90;;;;;;5057623;28;8784;-71
2022/01/06 02:50:17;;;;;;;;;65.20;51.60;22.20;99.90;;;;;;5057518;28;8819;-70
2022/01/06 02:52:43;;;;;;;;;69.60;53.60;22.30;99.90;;;;;;5057011;28;8853;-71
2022/01/06 02:55:13;;;;;;;;;60.80;48.00;22.40;99.90;;;;;;5058185;28;8754;-71
2022/01/06 02:57:40;;;;;;;;;68.75;54.25;22.50;99.90;;;;;;5057225;28;8826;-71
2022/01/06 03:00:08;;;;;;;;;68.00;52.80;22.30;99.90;;;;;;5057493;28;8772;-71
2022/01/06 03:02:35;;;;;;;;;69.00;54.60;22.30;99.90;;;;;;5057076;28;8867;-71
2022/01/06 03:05:01;;;;;;;;;67.40;53.60;22.50;99.90;;;;;;5057383;28;8758;-72
2022/01/06 03:07:28;;;;;;;;;67.00;51.00;22.50;99.90;;;;;;5055781;28;8845;-71
2022/01/06 03:09:56;;;;;;;;;60.00;47.00;22.60;99.90;;;;;;5057193;28;8777;-72
2022/01/06 03:12:28;;;;;;;;;64.75;51.25;22.70;99.90;;;;;;5055794;28;8762;-69
2022/01/06 03:14:55;;;;;;;;;63.50;49.75;22.90;99.90;;;;;;5057150;28;8762;-71
2022/01/06 03:17:22;;;;;;;;;58.50;46.50;22.80;99.90;;;;;;5055865;28;8758;-71
2022/01/06 03:19:49;;;;;;;;;63.00;48.00;22.90;99.90;;;;;;5037034;28;8760;-71
2022/01/06 03:22:19;;;;;;;;;60.50;47.25;22.90;99.90;;;;;;5037528;28;8768;-72
2022/01/06 03:24:45;;;;;;;;;55.75;44.50;23.20;99.90;;;;;;5036821;28;8802;-72
2022/01/06 03:27:12;;;;;;;;;58.00;45.75;23.20;99.90;;;;;;5037072;28;8910;-71
2022/01/06 03:29:39;;;;;;;;;55.75;45.50;23.40;99.90;;;;;;5036975;28;8784;-71
2022/01/06 03:32:06;;;;;;;;;57.50;46.25;23.60;99.90;;;;;;5051854;28;8765;-72
2022/01/06 03:34:32;;;;;;;;;59.50;45.75;23.60;99.90;;;;;;5054346;28;10012;-71
2022/01/06 03:37:01;;;;;;;;;59.50;45.50;23.70;99.90;;;;;;5057211;28;8860;-72
2022/01/06 03:39:28;;;;;;;;;60.50;48.50;23.60;99.90;;;;;;5056353;28;8768;-71
2022/01/06 03:41:55;;;;;;;;;58.75;46.25;23.70;99.90;;;;;;5056502;28;8757;-71
2022/01/06 03:44:22;;;;;;;;;60.25;48.00;23.70;99.90;;;;;;5056567;28;8769;-70
2022/01/06 03:46:48;;;;;;;;;60.50;48.25;23.80;99.90;;;;;;5056815;28;8742;-72
2022/01/06 03:49:15;;;;;;;;;57.25;46.50;23.90;99.90;;;;;;5056842;28;8734;-71
2022/01/06 03:51:42;;;;;;;;;57.00;45.50;23.90;99.90;;;;;;5055984;28;8770;-72
2022/01/06 03:54:08;;;;;;;;;52.50;43.00;24.10;99.90;;;;;;5056390;28;8745;-72
2022/01/06 03:56:35;;;;;;;;;56.75;44.25;24.20;99.90;;;;;;5055195;28;8766;-71
2022/01/06 03:59:02;;;;;;;;;52.75;42.25;24.30;99.90;;;;;;5056887;28;8766;-71
2022/01/06 04:01:28;;;;;;;;;52.00;41.75;24.30;99.90;;;;;;5055811;28;8733;-70
2022/01/06 04:03:55;;;;;;;;;52.25;42.50;24.10;99.90;;;;;;5057080;28;8754;-71
2022/01/06 04:06:22;;;;;;;;;53.25;43.75;24.20;99.90;;;;;;5054842;28;8734;-71
2022/01/06 04:08:49;;;;;;;;;57.00;43.75;24.40;99.90;;;;;;5056496;28;8726;-71
2022/01/06 04:11:15;;;;;;;;;54.00;43.25;24.50;99.90;;;;;;5055985;28;8742;-72
2022/01/06 04:13:42;;;;;;;;;59.00;44.00;24.40;99.90;;;;;;5056303;28;8730;-71
2022/01/06 04:16:12;;;;;;;;;54.25;42.25;24.40;99.90;;;;;;5072302;28;8715;-71
2022/01/06 04:18:39;;;;;;;;;56.00;45.75;24.70;99.90;;;;;;5056142;28;8828;-71
2022/01/06 04:21:07;;;;;;;;;56.00;46.75;24.80;99.90;;;;;;5056816;28;8745;-71
2022/01/06 04:23:34;;;;;;;;;54.50;43.25;24.80;99.90;;;;;;5059957;28;8740;-71
2022/01/06 04:26:00;;;;;;;;;50.00;41.75;24.60;99.90;;;;;;5060359;28;8777;-71
2022/01/06 04:28:27;;;;;;;;;53.25;41.75;24.60;99.90;;;;;;5059851;28;8734;-71
2022/01/06 04:30:54;;;;;;;;;50.75;41.00;24.80;99.90;;;;;;5060820;28;8819;-71
2022/01/06 04:33:20;;;;;;;;;47.50;40.25;24.90;99.90;;;;;;5059743;28;8863;-69
2022/01/06 04:35:47;;;;;;;;;50.00;41.50;25.20;99.90;;;;;;5059862;28;8789;-71
2022/01/06 04:38:14;;;;;;;;;43.00;35.00;25.50;99.90;;;;;;5060225;28;8864;-69
2022/01/06 04:40:41;;;;;;;;;48.50;37.75;25.70;99.90;;;;;;5059998;28;8796;-71
2022/01/06 04:43:07;;;;;;;;;45.75;37.50;25.90;99.70;;;;;;5060587;28;8745;-71
2022/01/06 04:45:34;;;;;;;;;45.00;34.00;26.00;99.00;;;;;;5059742;28;8789;-71
2022/01/06 04:48:01;;;;;;;;;47.00;38.25;26.10;98.40;;;;;;5059724;28;8898;-71
2022/01/06 04:50:28;;;;;;;;;37.75;32.50;26.10;98.10;;;;;;5059806;28;9501;-70
2022/01/06 04:52:55;;;;;;;;;40.50;35.25;26.00;97.80;;;;;;5059207;28;8797;-71
2022/01/06 04:55:21;;;;;;;;;39.50;33.25;25.90;98.40;;;;;;5060146;28;8753;-70
2022/01/06 04:57:48;;;;;;;;;43.50;35.25;26.10;97.60;;;;;;5059783;28;8749;-71
2022/01/06 05:00:15;;;;;;;;;32.00;27.00;26.10;97.20;;;;;;5058161;28;8777;-71
2022/01/06 05:02:42;;;;;;;;;36.25;32.75;26.20;97.10;;;;;;5058110;28;8784;-71
2022/01/06 05:05:09;;;;;;;;;42.50;33.50;26.50;96.60;;;;;;5059554;28;8772;-70
2022/01/06 05:07:35;;;;;;;;;35.25;30.00;26.70;95.80;;;;;;5059199;28;9104;-72
2022/01/06 05:10:02;;;;;;;;;34.00;30.25;26.70;95.60;;;;;;5075587;28;8760;-71
2022/01/06 05:12:30;;;;;;;;;29.75;28.50;26.70;95.40;;;;;;5059102;28;8781;-70
2022/01/06 05:14:57;;;;;;;;;34.25;30.50;26.70;95.20;;;;;;5059391;28;9467;-71
2022/01/06 05:17:24;;;;;;;;;35.25;32.25;26.70;95.70;;;;;;5059088;28;8766;-71
2022/01/06 05:19:50;;;;;;;;;35.25;31.75;26.80;95.20;;;;;;5039193;28;8771;-70
2022/01/06 05:22:17;;;;;;;;;39.50;33.25;27.00;94.80;;;;;;5039654;28;8736;-70
2022/01/06 05:24:44;;;;;;;;;34.50;31.25;27.10;94.70;;;;;;5039152;28;8752;-71
2022/01/06 05:27:10;;;;;;;;;34.75;30.00;27.10;94.50;;;;;;5039101;28;8749;-71
2022/01/06 05:29:38;;;;;;;;;40.75;33.25;27.10;94.50;;;;;;5038557;28;8807;-71
2022/01/06 05:32:05;;;;;;;;;34.75;29.50;26.90;94.90;;;;;;5038675;28;8833;-71
2022/01/06 05:34:31;;;;;;;;;41.75;33.50;27.00;94.80;;;;;;5056101;28;8765;-70
2022/01/06 05:36:58;;;;;;;;;35.75;29.75;27.10;95.20;;;;;;5059520;28;8742;-71
2022/01/06 05:39:25;;;;;;;;;31.25;30.50;27.30;94.10;;;;;;5058839;28;8752;-70
2022/01/06 05:41:51;;;;;;;;;32.75;31.75;27.20;94.10;;;;;;5059087;28;8774;-71
2022/01/06 05:44:18;;;;;;;;;40.75;33.00;27.30;94.00;;;;;;5058789;28;8773;-69
2022/01/06 05:46:47;;;;;;;;;42.50;36.25;27.30;94.30;;;;;;5057781;28;8801;-71
2022/01/06 05:49:15;;;;;;;;;37.50;29.50;27.40;94.50;;;;;;5058019;28;8856;-71
2022/01/06 05:51:42;;;;;;;;;32.75;31.00;27.40;93.10;;;;;;5058525;28;8776;-70
2022/01/06 05:54:08;;;;;;;;;34.75;30.25;27.40;92.70;;;;;;5058481;28;8753;-70
2022/01/06 05:56:35;;;;;;;;;32.50;29.00;27.40;92.80;;;;;;5058589;28;8773;-71
2022/01/06 05:59:02;;;;;;;;;38.50;33.25;27.50;92.60;;;;;;5058616;28;8768;-71
2022/01/06 06:01:29;;;;;;;;;31.50;29.50;27.50;93.70;;;;;;5056824;28;8851;-70
2022/01/06 06:03:56;;;;;;;;;32.75;31.00;27.20;92.90;;;;;;5058973;28;8757;-70
2022/01/06 06:06:22;;;;;;;;;36.25;31.25;26.90;92.40;;;;;;5058712;28;8734;-70
2022/01/06 06:08:49;;;;;;;;;33.75;30.25;27.20;92.80;;;;;;5058739;28;9355;-69
2022/01/06 06:11:16;;;;;;;;;33.25;30.25;27.50;92.40;;;;;;5058394;28;8757;-70
2022/01/06 06:13:42;;;;;;;;;35.50;31.25;27.80;92.10;;;;;;5058005;28;8718;-70
2022/01/06 06:16:09;;;;;;;;;28.75;26.50;28.00;92.00;;;;;;5058738;28;8773;-70
2022/01/06 06:18:36;;;;;;;;;33.00;28.00;28.20;91.70;;;;;;5057462;28;9434;-70
2022/01/06 06:21:02;;;;;;;;;29.00;23.25;28.30;91.40;;;;;;5058108;28;8761;-70
2022/01/06 06:23:29;;;;;;;;;23.75;23.75;28.30;90.40;;;;;;5058117;28;8827;-70
2022/01/06 06:25:56;;;;;;;;;27.25;26.50;28.20;90.60;;;;;;5057332;28;8774;-71
2022/01/06 06:28:22;;;;;;;;;28.75;28.00;27.90;90.10;;;;;;5058786;28;8880;-69
2022/01/06 06:30:49;;;;;;;;;28.00;26.50;28.00;90.70;;;;;;5058693;28;8784;-71
2022/01/06 06:33:16;;;;;;;;;32.00;28.25;28.20;90.70;;;;;;5039721;28;8812;-70
2022/01/06 06:35:42;;;;;;;;;25.25;24.50;28.30;90.70;;;;;;5037872;28;8772;-71
2022/01/06 06:38:09;;;;;;;;;36.00;28.50;28.50;90.30;;;;;;5037787;28;8838;-71
2022/01/06 06:40:36;;;;;;;;;27.00;25.25;28.60;89.50;;;;;;5036045;28;8764;-70
2022/01/06 06:43:02;;;;;;;;;24.00;22.50;28.60;88.90;;;;;;5037461;28;8752;-71
2022/01/06 06:45:29;;;;;;;;;32.75;25.25;28.50;88.60;;;;;;5037351;28;8748;-71
2022/01/06 06:47:56;;;;;;;;;25.25;22.75;28.70;87.40;;;;;;5041501;28;8908;-71
2022/01/06 06:50:23;;;;;;;;;25.00;24.25;28.70;86.90;;;;;;5057435;28;8761;-71
2022/01/06 06:52:49;;;;;;;;;26.75;23.00;28.70;86.70;;;;;;5057072;28;9506;-72
2022/01/06 06:55:16;;;;;;;;;22.00;21.00;28.50;87.90;;;;;;5056709;28;8750;-71
2022/01/06 06:57:43;;;;;;;;;22.75;21.50;28.50;87.40;;;;;;5057576;28;8765;-71
2022/01/06 07:00:10;;;;;;;;;21.75;20.50;28.60;86.00;;;;;;5057481;28;8745;-71
2022/01/06 07:02:37;;;;;;;;;22.25;21.25;28.70;86.00;;;;;;5056943;28;8843;-71
2022/01/06 07:05:04;;;;;;;;;21.50;20.50;28.90;84.80;;;;;;5057611;28;8855;-70
2022/01/06 07:07:31;;;;;;;;;25.75;23.00;29.00;83.90;;;;;;5057180;28;8726;-71
2022/01/06 07:09:58;;;;;;;;;20.00;20.00;28.70;83.60;;;;;;5057600;28;9415;-70
2022/01/06 07:12:24;;;;;;;;;20.00;18.50;28.70;84.50;;;;;;5057954;28;8784;-70
2022/01/06 07:14:51;;;;;;;;;29.25;26.75;28.90;83.50;;;;;;5061778;28;9535;-71
2022/01/06 07:17:18;;;;;;;;;24.25;20.25;28.70;84.40;;;;;;5056854;28;8847;-70
2022/01/06 07:19:45;;;;;;;;;24.50;23.00;28.60;84.60;;;;;;5056927;28;8797;-70
2022/01/06 07:22:11;;;;;;;;;22.50;20.25;28.70;83.90;;;;;;5057606;28;8762;-71
2022/01/06 07:24:41;;;;;;;;;25.50;22.50;29.00;83.60;;;;;;5045636;28;8754;-70
2022/01/06 07:27:07;;;;;;;;;19.25;19.00;29.20;83.80;;;;;;5046332;28;8791;-72
2022/01/06 07:29:34;;;;;;;;;22.75;20.00;29.20;82.70;;;;;;5055832;28;8750;-71
2022/01/06 07:32:01;;;;;;;;;26.75;23.00;29.30;83.00;;;;;;5056736;28;8765;-71
2022/01/06 07:34:27;;;;;;;;;25.75;22.75;29.30;82.60;;;;;;5056204;28;8761;-70
2022/01/06 07:36:54;;;;;;;;;29.25;25.25;29.20;83.00;;;;;;5057499;28;8730;-70
2022/01/06 07:39:21;;;;;;;;;30.00;29.50;29.30;83.10;;;;;;5056226;28;8758;-70
2022/01/06 07:41:47;;;;;;;;;28.00;25.00;29.30;83.90;;;;;;5056723;28;8848;-71
2022/01/06 07:44:14;;;;;;;;;28.25;24.25;29.40;84.40;;;;;;5056930;28;9230;-71
2022/01/06 07:46:42;;;;;;;;;29.50;26.00;29.30;82.30;;;;;;5056955;28;8745;-71
2022/01/06 07:49:09;;;;;;;;;22.75;22.00;29.40;82.00;;;;;;5057095;28;8757;-70
2022/01/06 07:51:35;;;;;;;;;27.25;24.75;29.60;81.00;;;;;;5056472;28;8861;-71
2022/01/06 07:54:02;;;;;;;;;21.75;18.75;29.60;80.20;;;;;;5056463;28;8827;-70
2022/01/06 07:56:29;;;;;;;;;24.50;22.00;29.60;80.30;;;;;;5062135;28;8844;-71
2022/01/06 07:58:56;;;;;;;;;22.50;19.00;29.50;80.20;;;;;;5062471;28;8797;-69
2022/01/06 08:01:23;;;;;;;;;22.50;18.25;29.50;78.80;;;;;;5063473;28;8769;-70
2022/01/06 08:03:50;;;;;;;;;20.50;18.75;29.60;76.50;;;;;;5063585;28;8754;-70
2022/01/06 08:06:16;;;;;;;;;17.50;14.75;29.80;74.30;;;;;;5063345;28;8818;-70
2022/01/06 08:08:43;;;;;;;;;19.50;17.50;29.50;75.90;;;;;;5078841;28;8762;-71
2022/01/06 08:11:10;;;;;;;;;23.25;20.00;29.50;75.60;;;;;;5062445;28;8766;-70
2022/01/06 08:13:37;;;;;;;;;22.00;20.25;29.40;77.10;;;;;;5078665;28;9580;-71
2022/01/06 08:16:04;;;;;;;;;20.25;18.75;29.30;77.20;;;;;;5064167;28;8738;-70
2022/01/06 08:18:31;;;;;;;;;19.25;19.25;29.50;76.80;;;;;;5062023;28;8880;-71
2022/01/06 08:20:58;;;;;;;;;24.00;22.25;29.50;78.10;;;;;;5063433;28;8789;-70
2022/01/06 08:23:26;;;;;;;;;23.75;22.00;29.60;79.00;;;;;;5062823;28;8765;-70
2022/01/06 08:25:53;;;;;;;;;22.75;19.50;29.70;78.00;;;;;;5063394;28;8811;-71
2022/01/06 08:28:19;;;;;;;;;23.25;21.75;29.70;77.70;;;;;;5061954;28;8827;-69
2022/01/06 08:30:46;;;;;;;;;21.25;19.00;29.70;76.40;;;;;;5063405;28;8864;-72
2022/01/06 08:33:13;;;;;;;;;24.50;19.25;29.70;76.10;;;;;;5062851;28;8894;-71
2022/01/06 08:35:39;;;;;;;;;11.50;11.50;29.80;77.00;;;;;;5062958;28;8753;-70
2022/01/06 08:38:06;;;;;;;;;21.00;20.00;29.90;77.00;;;;;;5063034;28;8752;-71
2022/01/06 08:40:33;;;;;;;;;21.25;18.25;30.00;76.40;;;;;;5062672;28;8750;-70
2022/01/06 08:43:00;;;;;;;;;21.50;18.75;30.00;74.60;;;;;;5063711;28;8757;-71
2022/01/06 08:45:26;;;;;;;;;23.50;20.25;29.90;74.50;;;;;;5061217;28;8758;-70
2022/01/06 08:47:53;;;;;;;;;18.75;17.50;29.70;75.20;;;;;;5066019;28;8783;-71
2022/01/06 08:50:20;;;;;;;;;22.25;19.00;29.70;75.70;;;;;;5043832;28;8786;-69
2022/01/06 08:52:47;;;;;;;;;22.25;20.50;29.70;75.50;;;;;;5042704;28;8776;-72
2022/01/06 08:55:13;;;;;;;;;19.75;18.00;29.80;76.60;;;;;;5043934;28;8724;-70
2022/01/06 08:57:40;;;;;;;;;15.25;14.25;29.80;73.70;;;;;;5043220;28;8744;-71
2022/01/06 09:00:09;;;;;;;;;20.60;18.00;29.80;73.70;;;;;;5043417;28;9389;-71
2022/01/06 09:02:36;;;;;;;;;23.40;21.00;29.90;74.30;;;;;;5041574;28;8775;-70
2022/01/06 09:05:05;;;;;;;;;22.00;19.50;29.90;75.30;;;;;;5043150;28;8776;-70
2022/01/06 09:07:35;;;;;;;;;19.25;18.25;29.70;73.60;;;;;;5039077;28;8760;-70
2022/01/06 09:10:02;;;;;;;;;19.50;19.50;29.80;75.20;;;;;;5040894;28;8761;-70
2022/01/06 09:12:28;;;;;;;;;22.00;19.75;29.90;73.50;;;;;;5040249;28;8780;-70
2022/01/06 09:14:57;;;;;;;;;21.25;18.75;30.00;73.40;;;;;;5039947;28;9449;-71
2022/01/06 09:17:24;;;;;;;;;20.25;17.00;30.00;71.50;;;;;;5039968;28;8787;-71
2022/01/06 09:19:51;;;;;;;;;19.00;18.25;30.00;72.50;;;;;;5040154;28;8748;-70
2022/01/06 09:22:17;;;;;;;;;22.60;19.60;30.00;72.00;;;;;;5039391;28;8787;-70
2022/01/06 09:24:44;;;;;;;;;16.40;15.20;30.00;70.80;;;;;;5040253;28;8854;-71
2022/01/06 09:27:11;;;;;;;;;19.00;16.25;29.90;71.10;;;;;;5039776;28;8733;-70
2022/01/06 09:29:37;;;;;;;;;24.00;19.75;29.90;71.40;;;;;;5039439;28;8776;-70
2022/01/06 09:32:04;;;;;;;;;23.00;19.50;29.80;71.70;;;;;;5038566;28;9318;-70
2022/01/06 09:34:31;;;;;;;;;22.75;21.00;29.70;72.40;;;;;;5056397;28;8730;-71
2022/01/06 09:36:58;;;;;;;;;37.75;31.50;29.70;75.70;;;;;;5060274;28;8837;-71
2022/01/06 09:39:24;;;;;;;;;33.50;31.25;29.80;74.20;;;;;;5059149;28;8818;-70
2022/01/06 09:41:51;;;;;;;;;24.00;21.00;29.80;76.50;;;;;;5059180;28;8744;-70
2022/01/06 09:44:18;;;;;;;;;20.00;19.00;29.80;74.50;;;;;;5058980;28;8773;-67
2022/01/06 09:46:45;;;;;;;;;28.25;27.00;29.80;74.70;;;;;;5058001;28;8740;-70
2022/01/06 09:49:12;;;;;;;;;25.00;23.50;29.80;73.90;;;;;;5059692;28;8713;-71
2022/01/06 09:51:39;;;;;;;;;22.50;21.75;29.90;73.90;;;;;;5058025;28;8762;-70
2022/01/06 09:54:07;;;;;;;;;21.75;20.00;29.90;73.40;;;;;;5058956;28;8863;-70
2022/01/06 09:56:35;;;;;;;;;27.25;22.25;29.90;73.80;;;;;;5059023;28;11360;-70
2022/01/06 09:59:02;;;;;;;;;23.25;22.25;29.80;75.40;;;;;;5059217;28;8793;-70
2022/01/06 10:01:29;;;;;;;;;23.75;20.25;29.80;76.50;;;;;;5057284;28;8762;-70
2022/01/06 10:03:56;;;;;;;;;18.75;18.75;29.70;77.50;;;;;;5059361;28;8761;-70
2022/01/06 10:06:26;;;;;;;;;18.75;17.50;29.60;78.10;;;;;;5056954;28;8792;-70
2022/01/06 10:08:59;;;;;;;;;18.75;18.75;29.40;77.10;;;;;;5057379;28;8939;-70
2022/01/06 10:11:28;;;;;;;;;18.60;18.60;29.30;77.40;;;;;;5057075;28;9676;-70
2022/01/06 10:13:59;;;;;;;;;21.60;18.80;29.30;75.70;;;;;;5058074;28;8770;-70
2022/01/06 10:16:28;;;;;;;;;21.20;20.20;29.20;75.90;;;;;;5073768;28;8765;-70
2022/01/06 10:18:56;;;;;;;;;31.50;24.25;29.30;77.60;;;;;;5057434;28;8819;-70
2022/01/06 10:21:23;;;;;;;;;39.00;34.00;29.10;78.70;;;;;;5058149;28;8770;-70
2022/01/06 10:24:11;;;;;;;;;32.00;28.00;29.00;80.40;;;;;;5057355;28;8766;-71
2022/01/06 10:26:39;;;;;;;;;23.50;18.25;28.90;81.20;;;;;;5056405;28;8776;-71
2022/01/06 10:29:08;;;;;;;;;22.00;19.75;28.90;80.60;;;;;;5056759;28;8780;-71
2022/01/06 10:31:35;;;;;;;;;24.75;23.00;28.80;81.10;;;;;;5057827;28;8741;-71
2022/01/06 10:34:07;;;;;;;;;23.25;19.00;28.70;82.60;;;;;;5058457;28;8805;-71
2022/01/06 10:36:35;;;;;;;;;25.25;24.75;28.60;83.40;;;;;;5058112;28;8868;-71
2022/01/06 10:39:03;;;;;;;;;34.25;28.00;28.50;84.10;;;;;;5057711;28;8781;-71
2022/01/06 10:41:30;;;;;;;;;37.00;32.75;28.40;83.90;;;;;;5056353;28;8765;-71
2022/01/06 10:43:57;;;;;;;;;38.50;31.25;28.30;83.60;;;;;;5057666;28;8750;-71
2022/01/06 10:46:38;;;;;;;;;28.75;26.75;28.30;83.20;;;;;;5057883;28;8750;-71
2022/01/06 10:49:08;;;;;;;;;32.75;29.75;28.20;82.90;;;;;;5056550;28;8766;-71
2022/01/06 10:51:37;;;;;;;;;23.25;20.25;28.10;82.60;;;;;;5057708;28;8758;-70
2022/01/06 10:54:04;;;;;;;;;32.50;28.75;27.90;81.50;;;;;;5072430;28;8793;-71
2022/01/06 10:56:31;;;;;;;;;18.00;17.00;27.80;81.10;;;;;;5057479;28;8757;-71
2022/01/06 10:58:58;;;;;;;;;27.50;25.75;27.70;81.30;;;;;;5055953;28;8836;-71
2022/01/06 11:01:26;;;;;;;;;31.75;28.00;27.60;82.20;;;;;;5057070;28;8706;-69
2022/01/06 11:03:52;;;;;;;;;22.75;18.75;27.40;82.60;;;;;;5057667;28;8777;-71
2022/01/06 11:06:19;;;;;;;;;28.00;25.50;27.30;82.90;;;;;;5057020;28;8891;-70
2022/01/06 11:08:46;;;;;;;;;29.75;26.00;27.20;85.20;;;;;;5057385;28;8769;-71
2022/01/06 11:13:41;;;;;;;;;35.00;28.75;27.10;83.90;;;;;;5057002;28;8793;-71
2022/01/06 11:16:09;;;;;;;;;39.25;30.25;27.00;85.90;;;;;;5056434;28;8734;-71
2022/01/06 11:18:38;;;;;;;;;41.75;33.75;26.90;86.40;;;;;;5056813;28;8774;-71
2022/01/06 11:21:10;;;;;;;;;47.25;36.00;26.80;87.20;;;;;;5057214;28;8762;-71
2022/01/06 11:23:36;;;;;;;;;45.25;37.75;26.70;87.70;;;;;;5055233;28;8793;-71
2022/01/06 11:26:16;;;;;;;;;50.00;40.00;26.60;90.70;;;;;;5055500;28;9153;-71
2022/01/06 11:28:47;;;;;;;;;60.75;45.50;26.50;92.80;;;;;;5055704;28;8754;-71
2022/01/06 11:31:24;;;;;;;;;72.60;58.40;26.40;91.20;;;;;;5055809;28;8738;-70
2022/01/06 11:33:53;;;;;;;;;84.60;68.60;26.40;90.60;;;;;;5056678;28;8798;-71
2022/01/06 11:36:30;;;;;;;;;83.00;68.80;26.30;90.70;;;;;;5056627;28;8784;-70
2022/01/06 11:38:57;;;;;;;;;81.40;70.80;26.20;91.80;;;;;;5055774;28;8789;-70
2022/01/06 11:41:30;;;;;;;;;112.40;91.80;26.10;92.80;;;;;;5054281;28;8891;-70
2022/01/06 11:43:58;;;;;;;;;97.00;76.80;26.00;91.20;;;;;;5063493;28;9403;-70
2022/01/06 11:46:25;;;;;;;;;77.40;64.80;26.00;91.40;;;;;;5056707;28;8750;-67
2022/01/06 11:48:55;;;;;;;;;90.80;76.40;26.00;93.60;;;;;;5057034;28;8809;-71
2022/01/06 11:51:31;;;;;;;;;87.80;73.00;26.00;94.30;;;;;;5056892;28;8754;-70
2022/01/06 11:53:58;;;;;;;;;110.80;89.80;25.80;95.00;;;;;;5056196;28;8797;-71
2022/01/06 11:56:25;;;;;;;;;136.60;107.80;25.60;95.20;;;;;;5056029;28;8774;-70
2022/01/06 11:59:05;;;;;;;;;133.80;108.80;25.40;95.00;;;;;;5056539;28;8773;-71
2022/01/06 12:01:49;;;;;;;;;127.60;98.00;25.30;94.90;;;;;;5056359;28;8745;-70
2022/01/06 12:04:19;;;;;;;;;135.40;106.00;25.40;95.10;;;;;;5057173;28;8843;-71
2022/01/06 12:06:46;;;;;;;;;119.60;100.40;25.30;95.20;;;;;;5056723;28;8773;-71
2022/01/06 12:09:16;;;;;;;;;103.00;81.60;25.30;96.50;;;;;;5056411;28;8766;-71
2022/01/06 12:11:43;;;;;;;;;120.60;99.20;25.30;97.30;;;;;;5056446;28;8795;-71
2022/01/06 12:14:11;;;;;;;;;92.00;79.80;25.20;98.20;;;;;;5056253;28;8841;-71
2022/01/06 12:16:38;;;;;;;;;90.40;70.60;25.00;97.00;;;;;;5056191;28;8766;-70
2022/01/06 12:19:23;;;;;;;;;84.20;65.80;25.00;97.00;;;;;;5056728;28;8822;-71
2022/01/06 12:21:49;;;;;;;;;78.00;61.80;24.90;97.00;;;;;;5056493;28;8821;-71
2022/01/06 12:24:16;;;;;;;;;75.20;56.40;24.90;97.10;;;;;;5056358;28;8792;-71
2022/01/06 12:26:44;;;;;;;;;68.80;51.00;24.90;97.60;;;;;;5055975;28;8830;-71
2022/01/06 12:29:19;;;;;;;;;71.80;53.00;24.90;97.90;;;;;;5056107;28;8766;-71
2022/01/06 12:31:46;;;;;;;;;107.20;87.20;24.80;97.60;;;;;;5054770;28;8871;-71
2022/01/06 12:34:14;;;;;;;;;73.00;53.00;24.90;96.50;;;;;;5056314;28;8790;-71
2022/01/06 12:36:43;;;;;;;;;75.40;60.40;24.80;95.30;;;;;;5056057;28;8753;-71
2022/01/06 12:39:17;;;;;;;;;102.00;79.80;24.80;94.60;;;;;;5056072;28;8839;-71
2022/01/06 12:41:44;;;;;;;;;158.60;137.60;24.90;94.60;;;;;;5056887;28;8785;-71
2022/01/06 12:44:22;;;;;;;;;109.40;103.00;24.90;94.70;;;;;;5059955;28;8753;-71